Agurain, Spain

06:13 PM CEST 2017 urria ren 20 an (GMT +0200)
EA2KU | | Change Station

Elev 2064 ft 42.95 °N, 2.71 °W | Updated 12 minutes ago

Oskarbia
Oskarbia
70.4 °F
Feels Like 77 °F
N
12.7
Haizea Aldagarria Haizea from Mendebalde
Gusts 18.3 mph

Gaur
High -- | Low -- °F
--% Chance of Precip.
Yesterday
High -- | Low -- °F
Precip. -- in
Presioa 30.06 in
Ikusgaitasuna -9999.0 Miliak
Clouds
Beroaren maila 77 °F
Ihintzaren maila 46 °F
Afoinua 41%
Rainfall 0.00 in
Snow Depth Not available.
8:30 AM 7:19 PM
New, 1% visible
METAR LEVT 201600Z 21011KT 170V240 CAVOK 22/08 Q1018
Presioa 30.06 in
Ikusgaitasuna -9999.0 Miliak
Clouds
Beroaren maila 77 °F
Ihintzaren maila 46 °F
Afoinua 41%
Rainfall 0.00 in
Snow Depth Not available.
8:30 AM 7:19 PM
New, 1% visible
METAR LEVT 201600Z 21011KT 170V240 CAVOK 22/08 Q1018

Get Severe Weather Alerts

Thanks for signing up!

Be on the lookout for a verification email in your inbox.

You'll start receiving the daily forecast at 6 AM.

×

10-Day Weather Forecast

×

Almanac

Astronomy

Oct. 20, 2017 Rise Set
Actual Time
Civil Twilight
Nautical Twilight
Astronomical Twilight
Moon
Length Of Visible Light
Length of Day
Tomorrow will be .
, % of the Moon is Illuminated

Today's Extremes

Country Highs Country Lows

Community

WunderPhotos

Category 6

Welcome to Category 6. This is the collective home for Weather Underground's featured writeups by Dr. Jeff Masters (right), Bob Henson (left), Chris Burt, and other regular contributors.

Nearby

Air Quality

  Air Quality AQ Index Pollutant
Not available.

Snow Depth

Station Depth Elevation

Earthquake Activity

City Distance Mag. Time & Date
Minimum magnitude displayed is 2.5.

Coastal Water Temperatures

Lekua Tenperatura

Stations

Nearby Weather Stations

Station Location Temp Izozki haizeak Ihintzaren maila Afoinua Haizea Precip. Elev Eguneratuta Type